createdAt,value
2016-04-05T00:00:07.199Z,10.72
2016-04-05T00:01:07.264Z,10.79
2016-04-05T00:02:13.516Z,10.77
2016-04-05T00:03:19.988Z,10.69
2016-04-05T00:04:08.710Z,10.76
2016-04-05T00:05:07.322Z,10.76
2016-04-05T00:06:07.340Z,10.77
2016-04-05T00:07:07.344Z,10.75
2016-04-05T00:08:07.377Z,10.82
2016-04-05T00:09:07.380Z,10.82
2016-04-05T00:10:07.413Z,10.86
2016-04-05T00:11:07.416Z,10.79
2016-04-05T00:12:13.701Z,10.83
2016-04-05T00:13:13.859Z,10.82
2016-04-05T00:14:07.487Z,10.84
2016-04-05T00:15:07.536Z,10.79
2016-04-05T00:16:07.570Z,10.86
2016-04-05T00:17:07.542Z,10.83
2016-04-05T00:18:07.544Z,10.79
2016-04-05T00:19:20.313Z,10.86
2016-04-05T00:20:07.503Z,10.87
2016-04-05T00:21:26.818Z,10.89
2016-04-05T00:22:13.899Z,10.9
2016-04-05T00:24:22.826Z,10.89
2016-04-05T00:25:22.860Z,10.86
2016-04-05T00:26:35.706Z,10.87
2016-04-05T00:27:22.897Z,10.92
2016-04-05T00:28:48.559Z,10.94
2016-04-05T00:29:22.997Z,10.9
2016-04-05T00:30:22.952Z,10.89
2016-04-05T00:31:35.705Z,10.89
2016-04-05T00:32:22.973Z,10.9
2016-04-05T00:33:23.008Z,11
2016-04-05T00:34:23.025Z,11.01
2016-04-05T00:35:42.231Z,10.97
2016-04-05T00:36:35.796Z,11.01
2016-04-05T00:37:54.395Z,10.98
2016-04-05T00:38:23.129Z,11.08
2016-04-05T00:39:23.226Z,11.01
2016-04-05T00:40:29.416Z,11.08
2016-04-05T00:41:23.200Z,11.02
2016-04-05T00:42:23.172Z,11.02
2016-04-05T00:43:23.190Z,11.02
2016-04-05T00:44:42.443Z,11.08
2016-04-05T00:45:29.507Z,11.08
2016-04-05T00:46:23.276Z,11.12
2016-04-05T00:47:23.279Z,11.12
2016-04-05T00:48:29.547Z,11.05
2016-04-05T00:49:23.315Z,11.1
2016-04-05T00:50:23.177Z,11.1
2016-04-05T00:51:23.336Z,11.12
2016-04-05T00:52:29.651Z,11.04
2016-04-05T00:53:23.606Z,11.19
2016-04-05T00:54:23.485Z,11.13
2016-04-05T00:55:23.425Z,11.18
2016-04-05T00:56:23.444Z,11.04
2016-04-05T00:57:23.462Z,11.16
2016-04-05T00:58:23.495Z,11.18
2016-04-05T00:59:36.342Z,11.22
2016-04-05T01:00:23.500Z,11.12
2016-04-05T01:01:42.738Z,11.02
2016-04-05T01:02:23.553Z,11.04
2016-04-05T01:03:49.341Z,11.02
2016-04-05T01:04:23.622Z,11.07
2016-04-05T01:05:23.609Z,10.98
2016-04-05T01:06:29.908Z,10.98
2016-04-05T01:07:23.692Z,10.98
2016-04-05T01:08:25.101Z,10.98
2016-04-05T01:09:23.697Z,10.98
2016-04-05T01:10:23.700Z,10.92
2016-04-05T01:11:30.015Z,10.89
2016-04-05T01:12:23.737Z,10.9
2016-04-05T01:13:23.770Z,10.86
2016-04-05T01:14:36.476Z,10.76
2016-04-05T01:15:49.481Z,10.83
2016-04-05T01:16:36.590Z,10.79
2016-04-05T01:17:23.687Z,10.9
2016-04-05T01:18:43.081Z,10.83
2016-04-05T01:19:29.974Z,10.83
2016-04-05T01:20:26.852Z,10.86
2016-04-05T01:21:26.979Z,10.9
2016-04-05T01:22:27.014Z,10.89
2016-04-05T01:23:46.237Z,10.92
2016-04-05T01:24:27.034Z,10.97
2016-04-05T01:25:58.383Z,11
2016-04-05T01:26:36.617Z,11.04
2016-04-05T01:28:07.936Z,11.01
2016-04-05T01:28:36.655Z,10.94
2016-04-05T01:29:36.703Z,10.95
2016-04-05T01:30:36.675Z,10.9
2016-04-05T01:31:42.959Z,10.97
2016-04-05T01:32:36.728Z,11.01
2016-04-05T01:33:49.499Z,11.02
2016-04-05T01:34:36.749Z,11.1
2016-04-05T01:35:36.830Z,11.07
2016-04-05T01:36:36.801Z,11.04
2016-04-05T01:37:36.804Z,11.08
2016-04-05T01:38:49.574Z,11.12
2016-04-05T01:39:36.855Z,11.05
2016-04-05T01:40:36.875Z,11.16
2016-04-05T01:41:36.893Z,11.2
2016-04-05T01:42:49.727Z,11.16
2016-04-05T01:43:36.914Z,11.18
2016-04-05T01:45:02.607Z,11.19
2016-04-05T01:45:36.830Z,11.2
2016-04-05T01:46:37.084Z,11.23
2016-04-05T01:47:42.952Z,11.26
2016-04-05T01:48:37.172Z,11.22
2016-04-05T01:49:37.073Z,11.2
2016-04-05T01:50:49.797Z,11.26
2016-04-05T01:51:37.109Z,11.22
2016-04-05T01:52:56.318Z,11.19
2016-04-05T01:53:49.867Z,11.22
2016-04-05T01:55:02.824Z,11.2
2016-04-05T01:55:56.357Z,11.19
2016-04-05T01:56:37.201Z,11.19
2016-04-05T01:58:46.709Z,11.16
2016-04-05T01:59:46.822Z,11.19
2016-04-05T02:00:59.512Z,11.18
2016-04-05T02:01:46.780Z,11.23
2016-04-05T02:03:06.017Z,11.19
2016-04-05T02:03:46.848Z,11.25
2016-04-05T02:05:12.554Z,11.25
2016-04-05T02:05:56.401Z,11.22
2016-04-05T02:06:56.434Z,11.3
2016-04-05T02:07:56.473Z,11.31
2016-04-05T02:08:56.695Z,11.33
2016-04-05T02:09:56.494Z,11.3
2016-04-05T02:10:56.513Z,11.33
2016-04-05T02:12:09.327Z,11.34
2016-04-05T02:12:56.533Z,11.31
2016-04-05T02:13:56.568Z,11.31
2016-04-05T02:14:56.866Z,11.27
2016-04-05T02:15:56.604Z,11.26
2016-04-05T02:16:56.621Z,11.31
2016-04-05T02:17:56.656Z,11.34
2016-04-05T02:19:02.940Z,11.33
2016-04-05T02:19:56.677Z,11.34
2016-04-05T02:21:15.899Z,11.27
2016-04-05T02:21:59.776Z,11.34
2016-04-05T02:22:59.810Z,11.33
2016-04-05T02:23:59.813Z,11.35
2016-04-05T02:25:06.097Z,11.34
2016-04-05T02:25:59.850Z,11.34
2016-04-05T02:26:59.883Z,11.3
2016-04-05T02:28:01.292Z,11.33
2016-04-05T02:28:59.920Z,11.4
2016-04-05T02:30:00.031Z,11.38
2016-04-05T02:30:59.942Z,11.37
2016-04-05T02:32:00.022Z,11.33
2016-04-05T02:32:59.994Z,11.35
2016-04-05T02:34:00.121Z,11.34
2016-04-05T02:34:59.874Z,11.35
2016-04-05T02:36:00.095Z,11.31
2016-04-05T02:37:06.333Z,11.33
2016-04-05T02:38:00.085Z,11.23
2016-04-05T02:39:00.088Z,11.27
2016-04-05T02:40:00.730Z,11.26
2016-04-05T02:41:00.140Z,11.22
2016-04-05T02:42:00.158Z,11.16
2016-04-05T02:43:00.285Z,11.15
2016-04-05T02:44:00.211Z,11.16
2016-04-05T02:45:07.165Z,11.05
2016-04-05T02:46:00.233Z,11.18
2016-04-05T02:47:00.239Z,11.08
2016-04-05T02:48:00.838Z,11.02
2016-04-05T02:49:13.016Z,10.95
2016-04-05T02:50:00.256Z,11.02
2016-04-05T02:51:25.958Z,10.98
2016-04-05T02:52:13.018Z,11
2016-04-05T02:53:00.329Z,10.98
2016-04-05T02:54:00.327Z,11.01
2016-04-05T02:55:00.373Z,11.04
2016-04-05T02:56:00.358Z,11
2016-04-05T02:57:00.359Z,10.98
2016-04-05T02:58:13.313Z,10.95
2016-04-05T02:59:00.408Z,10.98
2016-04-05T02:59:59.722Z,10.98
2016-04-05T03:01:00.427Z,11.05
2016-04-05T03:02:00.460Z,11.04
2016-04-05T03:03:00.478Z,11.02
2016-04-05T03:04:00.511Z,10.98
2016-04-05T03:05:00.544Z,10.95
2016-04-05T03:06:00.563Z,11.01
2016-04-05T03:07:06.830Z,10.98
2016-04-05T03:08:07.115Z,10.97
2016-04-05T03:09:19.805Z,11
2016-04-05T03:10:00.605Z,11
2016-04-05T03:11:26.327Z,11.02
2016-04-05T03:12:00.829Z,10.98
2016-04-05T03:14:13.428Z,10.97
2016-04-05T03:15:00.884Z,11
2016-04-05T03:16:19.933Z,10.92
2016-04-05T03:17:07.015Z,11
2016-04-05T03:18:26.438Z,10.92
2016-04-05T03:19:13.520Z,10.9
2016-04-05T03:20:00.897Z,10.9
2016-04-05T03:21:22.462Z,10.89
2016-04-05T03:22:16.215Z,10.9
2016-04-05T03:24:32.048Z,10.82
2016-04-05T03:26:29.007Z,10.84
2016-04-05T03:26:41.585Z,10.82
2016-04-05T03:27:41.604Z,10.77
2016-04-05T03:28:41.622Z,10.71
2016-04-05T03:29:47.954Z,10.76
2016-04-05T03:30:47.925Z,10.82
2016-04-05T03:31:41.693Z,10.77
2016-04-05T03:33:00.964Z,10.77
2016-04-05T03:34:00.936Z,10.77
2016-04-05T03:34:41.779Z,10.75
2016-04-05T03:37:22.628Z,10.79
2016-04-05T03:37:57.021Z,10.79
2016-04-05T03:39:59.605Z,10.75
2016-04-05T03:40:12.199Z,10.77
2016-04-05T03:41:12.233Z,10.71
2016-04-05T03:42:18.672Z,10.71
2016-04-05T03:43:25.019Z,10.86
2016-04-05T03:44:24.257Z,10.76
2016-04-05T03:45:31.510Z,10.84
2016-04-05T03:46:31.527Z,10.9
2016-04-05T03:47:41.093Z,10.97
2016-04-05T03:48:15.439Z,10.89
2016-04-05T03:50:56.307Z,10.92
2016-04-05T03:51:30.635Z,10.9
2016-04-05T03:52:30.684Z,10.89
2016-04-05T03:53:45.890Z,10.9
2016-04-05T03:54:45.893Z,10.92
2016-04-05T03:55:52.193Z,10.89
2016-04-05T03:56:47.352Z,10.92
2016-04-05T03:58:05.154Z,10.9
2016-04-05T03:59:14.718Z,10.84
2016-04-05T03:59:49.047Z,10.9
2016-04-05T04:02:04.836Z,10.95
2016-04-05T04:03:04.854Z,10.87
2016-04-05T04:04:04.888Z,10.9
2016-04-05T04:05:11.188Z,10.94
2016-04-05T04:06:04.941Z,11.01
2016-04-05T04:07:04.944Z,11.02
2016-04-05T04:08:05.025Z,10.97
2016-04-05T04:09:17.714Z,10.86
2016-04-05T04:10:05.030Z,10.98
2016-04-05T04:11:05.033Z,10.95
2016-04-05T04:12:17.801Z,10.95
2016-04-05T04:13:05.085Z,10.95
2016-04-05T04:14:18.009Z,10.92
2016-04-05T04:15:05.402Z,10.9
2016-04-05T04:16:17.858Z,10.83
2016-04-05T04:17:06.549Z,10.92
2016-04-05T04:18:24.348Z,10.79
2016-04-05T04:19:05.179Z,10.92
2016-04-05T04:20:36.494Z,10.83
2016-04-05T04:21:14.731Z,10.83
2016-04-05T04:23:55.629Z,10.82
2016-04-05T04:24:29.989Z,10.9
2016-04-05T04:26:27.057Z,10.87
2016-04-05T04:26:45.885Z,10.9
2016-04-05T04:29:01.049Z,10.89
2016-04-05T04:30:01.067Z,10.84
2016-04-05T04:31:33.023Z,10.97
2016-04-05T04:32:02.604Z,11
2016-04-05T04:34:41.970Z,10.92
2016-04-05T04:35:16.347Z,10.87
2016-04-05T04:37:57.917Z,10.89
2016-04-05T04:38:32.245Z,10.86
2016-04-05T04:40:35.079Z,10.9
2016-04-05T04:41:13.316Z,10.9
2016-04-05T04:41:47.706Z,10.95
2016-04-05T04:44:28.527Z,10.87
2016-04-05T04:45:02.889Z,10.9
2016-04-05T04:46:35.720Z,10.97
2016-04-05T04:47:10.598Z,10.92
2016-04-05T04:48:38.804Z,10.95
2016-04-05T04:49:22.682Z,10.98
2016-04-05T04:50:22.746Z,10.9
2016-04-05T04:51:22.718Z,10.98
2016-04-05T04:52:22.783Z,11.04
2016-04-05T04:53:22.754Z,10.94
2016-04-05T04:54:22.789Z,11.02
2016-04-05T04:55:22.776Z,11
2016-04-05T04:56:22.809Z,11.01
2016-04-05T04:57:22.813Z,11.01
2016-04-05T04:58:22.846Z,10.95
2016-04-05T04:59:23.021Z,10.97
2016-04-05T05:00:22.898Z,10.95
2016-04-05T05:01:22.995Z,10.98
2016-04-05T05:02:22.920Z,11.01
2016-04-05T05:03:23.000Z,10.95
2016-04-05T05:04:22.956Z,11.02
2016-04-05T05:05:22.990Z,10.92
2016-04-05T05:06:22.992Z,11
2016-04-05T05:07:23.042Z,11.07
2016-04-05T05:08:23.029Z,10.97
2016-04-05T05:09:23.048Z,10.94
2016-04-05T05:10:23.066Z,11.08
2016-04-05T05:11:23.084Z,11.02
2016-04-05T05:12:35.869Z,10.95
2016-04-05T05:13:29.417Z,11.07
2016-04-05T05:14:42.374Z,11.05
2016-04-05T05:15:24.783Z,11.02
2016-04-05T05:16:23.192Z,11.07
2016-04-05T05:17:23.194Z,11.07
2016-04-05T05:18:23.243Z,11.07
2016-04-05T05:19:29.544Z,11
2016-04-05T05:20:23.280Z,11.15
2016-04-05T05:21:23.267Z,11.02
2016-04-05T05:22:29.583Z,11.02
2016-04-05T05:23:23.351Z,10.98
2016-04-05T05:24:23.354Z,11
2016-04-05T05:25:23.357Z,11.07
2016-04-05T05:26:23.406Z,11.13
2016-04-05T05:27:23.409Z,11.02
2016-04-05T05:28:29.771Z,11.08
2016-04-05T05:29:23.477Z,11.1
2016-04-05T05:30:23.526Z,11.05
2016-04-05T05:31:23.482Z,11.07
2016-04-05T05:32:24.109Z,11.15
2016-04-05T05:33:23.550Z,11.13
2016-04-05T05:34:23.553Z,11.13
2016-04-05T05:35:23.570Z,11.18
2016-04-05T05:36:23.698Z,11.16
2016-04-05T05:37:23.607Z,11.16
2016-04-05T05:38:36.344Z,11.15
2016-04-05T05:39:23.629Z,11.2
2016-04-05T05:40:49.334Z,11.13
2016-04-05T05:41:33.227Z,11.15
2016-04-05T05:42:58.936Z,11.15
2016-04-05T05:43:39.530Z,11.18
2016-04-05T05:45:04.598Z,11.19
2016-04-05T05:45:48.473Z,11.18
2016-04-05T05:46:48.475Z,11.2
2016-04-05T05:47:49.916Z,11.18
2016-04-05T05:48:48.511Z,11.2
2016-04-05T05:50:01.266Z,11.18
2016-04-05T05:50:54.813Z,11.19
2016-04-05T05:52:14.257Z,11.19
2016-04-05T05:53:01.354Z,11.2
2016-04-05T05:54:14.278Z,11.19
2016-04-05T05:55:04.468Z,11.23
2016-04-05T05:55:58.033Z,11.23
2016-04-05T05:56:58.193Z,11.25
2016-04-05T05:58:10.945Z,11.22
2016-04-05T05:58:58.260Z,11.27
2016-04-05T05:59:58.294Z,11.34
2016-04-05T06:00:58.282Z,11.33
2016-04-05T06:01:58.299Z,11.3
2016-04-05T06:02:58.489Z,11.31
2016-04-05T06:03:58.337Z,11.3
2016-04-05T06:05:04.682Z,11.33
2016-04-05T06:06:04.716Z,11.3
2016-04-05T06:07:17.642Z,11.37
2016-04-05T06:08:17.644Z,11.43
2016-04-05T06:09:24.100Z,11.48
2016-04-05T06:10:24.134Z,11.51
2016-04-05T06:12:29.811Z,11.43
2016-04-05T06:13:08.173Z,11.49
2016-04-05T06:15:23.663Z,11.43
2016-04-05T06:16:23.494Z,11.48
2016-04-05T06:17:23.511Z,11.49
2016-04-05T06:18:23.530Z,11.43
2016-04-05T06:19:30.424Z,11.48
2016-04-05T06:20:23.566Z,11.52
2016-04-05T06:21:36.319Z,11.52
2016-04-05T06:22:36.353Z,11.41
2016-04-05T06:23:42.903Z,11.49
2016-04-05T06:24:23.656Z,11.56
2016-04-05T06:25:49.361Z,11.53
2016-04-05T06:26:33.082Z,11.45
2016-04-05T06:27:52.305Z,11.58
2016-04-05T06:28:36.182Z,11.55
2016-04-05T06:29:36.215Z,11.49
2016-04-05T06:30:48.969Z,11.52
2016-04-05T06:32:07.568Z,11.51
2016-04-05T06:33:01.992Z,11.43
2016-04-05T06:33:36.304Z,11.45
2016-04-05T06:35:42.623Z,11.56
2016-04-05T06:36:36.375Z,11.59
2016-04-05T06:37:36.393Z,11.73
2016-04-05T06:38:42.662Z,11.76
2016-04-05T06:39:49.149Z,11.7
2016-04-05T06:40:36.417Z,11.76
2016-04-05T06:41:55.654Z,11.8
2016-04-05T06:42:44.142Z,11.88
2016-04-05T06:44:02.194Z,11.97
2016-04-05T06:44:46.084Z,11.95
2016-04-05T06:46:08.340Z,12.03
2016-04-05T06:46:52.247Z,12.07
2016-04-05T06:48:17.969Z,12.21
2016-04-05T06:48:52.282Z,12.21
2016-04-05T06:51:01.853Z,12.35
2016-04-05T06:52:01.919Z,12.33
2016-04-05T06:53:01.874Z,12.3
2016-04-05T06:54:14.643Z,12.4
2016-04-05T06:55:01.911Z,12.4
2016-04-05T06:56:27.601Z,12.51
2016-04-05T06:57:08.244Z,12.51
2016-04-05T06:58:01.997Z,12.43
2016-04-05T06:59:08.281Z,12.53
2016-04-05T07:00:02.018Z,12.63
2016-04-05T07:01:02.208Z,12.68
2016-04-05T07:02:02.054Z,12.75
2016-04-05T07:03:01.338Z,12.76
2016-04-05T07:04:08.482Z,12.73
2016-04-05T07:05:08.406Z,12.87
2016-04-05T07:06:02.206Z,12.8
2016-04-05T07:07:08.428Z,12.81
2016-04-05T07:08:08.494Z,12.83
2016-04-05T07:09:02.731Z,12.78
2016-04-05T07:10:08.484Z,12.73
2016-04-05T07:11:02.252Z,12.76
2016-04-05T07:12:21.458Z,12.7
2016-04-05T07:13:02.305Z,12.72
2016-04-05T07:14:02.355Z,12.76
2016-04-05T07:15:02.341Z,12.61
2016-04-05T07:16:08.641Z,12.61
2016-04-05T07:17:08.660Z,12.66
2016-04-05T07:18:02.413Z,12.73
2016-04-05T07:19:21.602Z,12.7
2016-04-05T07:20:02.449Z,12.88
2016-04-05T07:21:02.436Z,12.91
2016-04-05T07:22:15.204Z,12.94
2016-04-05T07:23:02.488Z,12.95
2016-04-05T07:24:21.741Z,12.95
2016-04-05T07:25:15.306Z,13.01
2016-04-05T07:26:03.980Z,13.01
2016-04-05T07:27:28.279Z,13.02
2016-04-05T07:28:21.814Z,13.01
2016-04-05T07:30:28.397Z,13.05
2016-04-05T07:31:12.401Z,13.02
2016-04-05T07:32:38.043Z,12.88
2016-04-05T07:33:12.405Z,13.02
2016-04-05T07:34:45.080Z,12.91
2016-04-05T07:35:23.333Z,12.91
2016-04-05T07:36:23.414Z,13.01
2016-04-05T07:37:23.353Z,13.09
2016-04-05T07:39:23.375Z,13.16
2016-04-05T07:40:23.408Z,13.2
2016-04-05T07:41:29.724Z,13.26
2016-04-05T07:42:23.477Z,13.26
2016-04-05T07:43:36.245Z,13.2
2016-04-05T07:44:23.528Z,13.2
2016-04-05T07:45:49.235Z,13.21
2016-04-05T07:46:36.269Z,13.24
2016-04-05T07:47:23.568Z,13.31
2016-04-05T07:48:42.774Z,13.4
2016-04-05T07:49:29.855Z,13.42
2016-04-05T07:50:49.295Z,13.37
2016-04-05T07:51:23.641Z,13.42
2016-04-05T07:52:23.691Z,13.4
2016-04-05T07:53:23.678Z,13.45
2016-04-05T07:54:36.462Z,13.42
2016-04-05T07:55:30.012Z,13.42
2016-04-05T07:56:42.968Z,13.42
2016-04-05T07:57:39.579Z,13.49
2016-04-05T07:58:39.598Z,13.64
2016-04-05T07:59:39.616Z,13.73
2016-04-05T08:00:39.650Z,13.82
2016-04-05T08:01:39.684Z,13.85
2016-04-05T08:02:41.123Z,13.86
2016-04-05T08:03:39.737Z,13.7
2016-04-05T08:04:58.942Z,13.83
2016-04-05T08:05:42.835Z,13.87
2016-04-05T08:06:42.854Z,13.8
2016-04-05T08:07:42.856Z,13.83
2016-04-05T08:08:42.890Z,13.83
2016-04-05T08:09:49.175Z,13.85
2016-04-05T08:10:55.692Z,13.94
2016-04-05T08:11:42.945Z,13.87
2016-04-05T08:13:02.201Z,13.93
2016-04-05T08:13:43.607Z,13.87
2016-04-05T08:15:08.691Z,13.85
2016-04-05T08:15:53.956Z,13.82
2016-04-05T08:16:54.036Z,13.73
2016-04-05T08:18:06.792Z,13.87
2016-04-05T08:18:54.089Z,13.76
2016-04-05T08:19:54.107Z,13.64
2016-04-05T08:20:54.142Z,13.46
2016-04-05T08:21:54.175Z,13.37
2016-04-05T08:22:54.177Z,13.36
2016-04-05T08:23:54.212Z,13.17
2016-04-05T08:25:00.483Z,13.03
2016-04-05T08:25:54.264Z,13.05
2016-04-05T08:27:07.004Z,13.08
2016-04-05T08:28:00.569Z,13.01
2016-04-05T08:28:54.304Z,12.98
2016-04-05T08:29:54.337Z,12.88
2016-04-05T08:31:00.655Z,12.95
2016-04-05T08:31:54.968Z,12.91
2016-04-05T08:32:54.501Z,13.01
2016-04-05T08:33:54.426Z,12.95
2016-04-05T08:34:54.429Z,12.93
2016-04-05T08:36:00.762Z,13.01
2016-04-05T08:36:54.497Z,13.05
2016-04-05T08:37:54.484Z,12.98
2016-04-05T08:39:07.255Z,13.02
2016-04-05T08:39:54.551Z,13.06
2016-04-05T08:40:54.554Z,13.03
2016-04-05T08:42:00.857Z,13.09
2016-04-05T08:43:25.937Z,13.01
2016-04-05T08:44:13.846Z,13.08
2016-04-05T08:44:54.643Z,13.13
2016-04-05T08:46:20.414Z,13.23
2016-04-05T08:46:54.695Z,13.26
2016-04-05T08:47:54.761Z,13.21
2016-04-05T08:48:54.716Z,13.2
2016-04-05T08:50:01.113Z,13.21
2016-04-05T08:50:56.191Z,13.37
2016-04-05T08:52:07.555Z,13.37
2016-04-05T08:52:54.821Z,13.28
2016-04-05T08:53:54.838Z,13.4
2016-04-05T08:55:07.610Z,13.39
2016-04-05T08:55:54.891Z,13.43
2016-04-05T08:58:04.477Z,13.42
2016-04-05T08:59:23.699Z,13.37
2016-04-05T09:00:04.499Z,13.42
2016-04-05T09:01:04.532Z,13.24
2016-04-05T09:02:10.832Z,13.31
2016-04-05T09:03:04.585Z,13.26
2016-04-05T09:04:17.323Z,13.36
2016-04-05T09:05:17.371Z,13.33
2016-04-05T09:06:04.624Z,13.28
2016-04-05T09:07:04.673Z,13.36
2016-04-05T09:08:11.051Z,13.36
2016-04-05T09:09:04.695Z,13.39
2016-04-05T09:10:04.717Z,13.45
2016-04-05T09:11:11.003Z,13.52
2016-04-05T09:12:04.770Z,13.55
2016-04-05T09:13:24.023Z,13.5
2016-04-05T09:14:04.994Z,13.61
2016-04-05T09:15:36.138Z,13.68
2016-04-05T09:16:17.453Z,13.7
2016-04-05T09:17:45.705Z,13.61
2016-04-05T09:18:23.943Z,13.67
2016-04-05T09:20:23.980Z,13.86
2016-04-05T09:21:24.029Z,13.93
2016-04-05T09:22:24.063Z,14.16
2016-04-05T09:23:24.847Z,14.15
2016-04-05T09:24:36.802Z,14.2
2016-04-05T09:25:24.118Z,14.23
2016-04-05T09:27:21.093Z,14.44
2016-04-05T09:28:27.532Z,14.45
2016-04-05T09:28:40.079Z,14.43
2016-04-05T09:29:40.098Z,14.49
2016-04-05T09:30:40.115Z,14.55
2016-04-05T09:31:40.274Z,14.67
2016-04-05T09:32:40.777Z,14.7
2016-04-05T09:33:52.920Z,14.67
2016-04-05T09:34:52.986Z,14.7
2016-04-05T09:35:40.239Z,14.63
2016-04-05T09:36:59.460Z,14.56
2016-04-05T09:37:40.291Z,14.55
2016-04-05T09:38:40.340Z,14.52
2016-04-05T09:39:40.359Z,14.55
2016-04-05T09:40:53.158Z,14.82
2016-04-05T09:41:46.630Z,14.77
2016-04-05T09:43:37.479Z,14.63
2016-04-05T09:43:50.057Z,14.68
2016-04-05T09:45:02.827Z,14.67
2016-04-05T09:46:02.893Z,14.67
2016-04-05T09:47:15.849Z,14.61
2016-04-05T09:48:31.929Z,14.81
2016-04-05T09:49:19.026Z,14.82
2016-04-05T09:50:44.858Z,14.89
2016-04-05T09:51:20.422Z,14.81
2016-04-05T09:52:19.174Z,15.18
2016-04-05T09:53:28.397Z,15.17
2016-04-05T09:54:31.915Z,15.1
2016-04-05T09:55:19.105Z,15.22
2016-04-05T09:56:44.779Z,15.26
2016-04-05T09:57:31.876Z,15.22
2016-04-05T09:58:19.176Z,15.12
2016-04-05T09:59:38.428Z,15.05
2016-04-05T10:00:19.243Z,15
2016-04-05T10:01:39.089Z,14.86
2016-04-05T10:02:19.249Z,14.85
2016-04-05T10:03:19.282Z,14.71
2016-04-05T10:04:26.176Z,14.7
2016-04-05T10:05:32.053Z,14.49
2016-04-05T10:06:19.337Z,14.55
2016-04-05T10:07:38.605Z,14.49
2016-04-05T10:08:19.389Z,14.44
2016-04-05T10:10:29.003Z,14.04
2016-04-05T10:11:48.225Z,13.97
2016-04-05T10:12:32.213Z,14
2016-04-05T10:13:32.216Z,13.91
2016-04-05T10:14:44.969Z,13.98
2016-04-05T10:15:32.847Z,14
2016-04-05T10:16:51.942Z,13.98
2016-04-05T10:17:32.305Z,14.03
2016-04-05T10:18:57.980Z,14.16
2016-04-05T10:19:41.857Z,14.15
2016-04-05T10:21:01.110Z,14.12
2016-04-05T10:21:48.174Z,14.16
2016-04-05T10:22:41.943Z,14.19
2016-04-05T10:24:01.164Z,14.13
2016-04-05T10:24:43.401Z,14.12
2016-04-05T10:26:01.202Z,14.08
2016-04-05T10:26:42.032Z,13.98
2016-04-05T10:28:07.725Z,13.98
2016-04-05T10:28:43.538Z,14.05
2016-04-05T10:29:42.180Z,14.03
2016-04-05T10:30:45.137Z,13.91
2016-04-05T10:31:42.139Z,13.98
2016-04-05T10:32:42.173Z,13.93
2016-04-05T10:33:42.191Z,13.91
2016-04-05T10:34:43.648Z,13.93
2016-04-05T10:35:42.212Z,13.95
2016-04-05T10:36:42.231Z,14.01
2016-04-05T10:37:42.280Z,13.98
2016-04-05T10:38:55.048Z,13.97
2016-04-05T10:39:42.286Z,14.03
2016-04-05T10:41:01.538Z,14.04
2016-04-05T10:41:42.337Z,14.11
2016-04-05T10:42:42.372Z,14.25
2016-04-05T10:43:42.999Z,14.2
2016-04-05T10:44:42.425Z,14.28
2016-04-05T10:45:43.052Z,14.28
2016-04-05T10:46:42.914Z,14.31
2016-04-05T10:47:42.478Z,14.31
2016-04-05T10:48:55.247Z,14.36
2016-04-05T10:49:55.328Z,14.34
2016-04-05T10:50:42.549Z,14.36
2016-04-05T10:52:08.242Z,14.51
2016-04-05T10:52:42.602Z,14.41
2016-04-05T10:54:57.857Z,14.82
2016-04-05T10:55:57.874Z,14.86
2016-04-05T10:56:57.894Z,14.87
2016-04-05T10:57:57.271Z,14.93
2016-04-05T10:58:57.946Z,14.96
2016-04-05T10:59:57.949Z,14.7
2016-04-05T11:00:57.983Z,14.78
2016-04-05T11:01:58.001Z,14.82
2016-04-05T11:03:17.240Z,14.9
2016-04-05T11:04:01.131Z,14.99
2016-04-05T11:05:01.150Z,14.99
2016-04-05T11:06:07.421Z,14.97
2016-04-05T11:07:01.187Z,14.99
2016-04-05T11:08:13.792Z,14.97
2016-04-05T11:09:20.099Z,15.02
2016-04-05T11:10:20.445Z,15.1
2016-04-05T11:11:01.273Z,15
2016-04-05T11:12:32.606Z,15.02
2016-04-05T11:13:01.340Z,14.96
2016-04-05T11:14:01.328Z,15
2016-04-05T11:15:01.440Z,15.12
2016-04-05T11:16:01.365Z,15.26
2016-04-05T11:17:14.136Z,15.51
2016-04-05T11:18:02.842Z,15.57
2016-04-05T11:19:20.673Z,15.75
2016-04-05T11:20:04.550Z,15.88
2016-04-05T11:21:04.569Z,16.22
2016-04-05T11:22:17.322Z,16.61
2016-04-05T11:23:35.934Z,16.86
2016-04-05T11:24:05.248Z,16.91
2016-04-05T11:25:04.672Z,16.79
2016-04-05T11:26:05.300Z,16.66
2016-04-05T11:27:11.178Z,16.61
2016-04-05T11:28:17.478Z,16.57
2016-04-05T11:29:04.762Z,16.5
2016-04-05T11:30:04.780Z,16.28
2016-04-05T11:31:05.033Z,16.22
2016-04-05T11:32:04.833Z,16
2016-04-05T11:33:04.913Z,15.96
2016-04-05T11:34:04.885Z,15.88
2016-04-05T11:35:04.919Z,15.92
2016-04-05T11:36:11.187Z,16
2016-04-05T11:37:24.158Z,16.18
2016-04-05T11:38:04.957Z,16.24
2016-04-05T11:39:24.179Z,16.29
2016-04-05T11:40:17.807Z,16.24
2016-04-05T11:41:05.043Z,16.43
2016-04-05T11:42:05.062Z,16.46
2016-04-05T11:43:11.377Z,16.43
2016-04-05T11:44:11.364Z,16.65
2016-04-05T11:45:05.133Z,16.92
2016-04-05T11:46:05.213Z,17.02
2016-04-05T11:47:11.451Z,17.24
2016-04-05T11:48:11.469Z,17.28
2016-04-05T11:49:06.659Z,17.49
2016-04-05T11:50:06.708Z,17.53
2016-04-05T11:51:05.287Z,17.59
2016-04-05T11:52:18.032Z,17.6
2016-04-05T11:53:05.338Z,17.56
2016-04-05T11:54:05.332Z,17.53
2016-04-05T11:55:11.623Z,17.59
2016-04-05T11:56:11.633Z,17.69
2016-04-05T11:57:05.399Z,17.63
2016-04-05T11:58:05.226Z,17.5
2016-04-05T11:59:05.428Z,17.49
2016-04-05T12:00:05.445Z,17.39
2016-04-05T12:01:06.116Z,17.35
2016-04-05T12:02:18.227Z,17.35
2016-04-05T12:03:18.260Z,17.53
2016-04-05T12:04:24.730Z,17.44
2016-04-05T12:05:05.606Z,17.52
2016-04-05T12:07:08.205Z,17.3
2016-04-05T12:07:20.908Z,17.24
2016-04-05T12:08:20.910Z,17.27
2016-04-05T12:09:27.193Z,17.2
2016-04-05T12:10:27.445Z,17.17
2016-04-05T12:11:40.229Z,17.27
2016-04-05T12:12:40.248Z,17.3
2016-04-05T12:13:46.703Z,17.37
2016-04-05T12:14:46.784Z,17.34
2016-04-05T12:16:36.289Z,17.39
2016-04-05T12:17:36.308Z,17.41
2016-04-05T12:18:42.623Z,17.39
2016-04-05T12:19:37.767Z,17.39
2016-04-05T12:20:36.410Z,17.52
2016-04-05T12:21:36.413Z,17.56
2016-04-05T12:22:49.274Z,17.65
2016-04-05T12:23:37.902Z,17.63
2016-04-05T12:24:55.717Z,17.6
2016-04-05T12:25:39.564Z,17.65
2016-04-05T12:27:02.191Z,17.73
2016-04-05T12:27:49.288Z,17.57
2016-04-05T12:28:36.602Z,17.41
2016-04-05T12:29:36.622Z,17.35
2016-04-05T12:30:49.374Z,17.38
2016-04-05T12:31:36.955Z,17.38
2016-04-05T12:32:36.692Z,17.42
2016-04-05T12:33:49.554Z,17.56
2016-04-05T12:34:55.931Z,17.65
2016-04-05T12:36:05.593Z,17.6
2016-04-05T12:38:14.177Z,17.46
2016-04-05T12:39:14.383Z,17.35
2016-04-05T12:40:20.651Z,17.19
2016-04-05T12:41:15.809Z,17.16
2016-04-05T12:42:27.203Z,17.05
2016-04-05T12:43:14.487Z,16.94
2016-04-05T12:44:27.240Z,17.07
2016-04-05T12:45:14.509Z,16.82
2016-04-05T12:46:33.933Z,16.68
2016-04-05T12:47:14.560Z,16.62
2016-04-05T12:48:14.657Z,16.4
2016-04-05T12:49:14.629Z,16.41
2016-04-05T12:50:14.678Z,16.41
2016-04-05T12:51:14.681Z,16.31
2016-04-05T12:52:14.684Z,16.13
2016-04-05T12:53:15.342Z,15.98
2016-04-05T12:54:27.486Z,15.85
2016-04-05T12:55:27.519Z,15.84
2016-04-05T12:56:40.460Z,15.83
2016-04-05T12:57:14.868Z,15.7
2016-04-05T12:58:14.872Z,15.7
2016-04-05T12:59:14.921Z,15.69
2016-04-05T13:00:14.907Z,15.67
2016-04-05T13:01:24.457Z,15.57
2016-04-05T13:02:24.476Z,15.57
2016-04-05T13:03:37.290Z,15.55
2016-04-05T13:04:24.543Z,15.55
2016-04-05T13:05:50.218Z,15.45
2016-04-05T13:06:31.439Z,15.52
2016-04-05T13:07:50.254Z,15.54
2016-04-05T13:08:24.633Z,15.7
2016-04-05T13:09:24.667Z,15.75
2016-04-05T13:10:24.826Z,15.76
2016-04-05T13:11:24.703Z,15.76
2016-04-05T13:12:24.893Z,15.66
2016-04-05T13:13:24.724Z,15.67
2016-04-05T13:14:24.774Z,15.59
2016-04-05T13:15:24.776Z,15.72
2016-04-05T13:16:24.856Z,15.55
2016-04-05T13:17:37.579Z,15.44
2016-04-05T13:18:24.847Z,15.45
2016-04-05T13:19:50.615Z,15.3
2016-04-05T13:20:34.680Z,15.35
2016-04-05T13:22:31.686Z,15.25
2016-04-05T13:23:04.873Z,15.26
2016-04-05T13:23:48.767Z,15.19
2016-04-05T13:25:08.006Z,15.11
2016-04-05T13:26:17.212Z,15.14
2016-04-05T13:27:01.118Z,15.26
2016-04-05T13:28:58.108Z,15.17
2016-04-05T13:30:08.285Z,15.29
2016-04-05T13:31:17.835Z,15.26
2016-04-05T13:32:27.260Z,15.27
2016-04-05T13:33:05.619Z,15.14
2016-04-05T13:33:39.966Z,15.18